sensor_id;sensor_type;location;lat;lon;timestamp;pressure;altitude;pressure_sealevel;temperature;humidity
38225;BME280;24025;48.138;11.428;2023-05-22T00:00:49;95108.78;;;16.13;70.95
38225;BME280;24025;48.138;11.428;2023-05-22T00:03:23;95111.13;;;16.11;70.83
38225;BME280;24025;48.138;11.428;2023-05-22T00:05:54;95113.94;;;16.04;71.01
38225;BME280;24025;48.138;11.428;2023-05-22T00:08:29;95107.84;;;16.00;70.83
38225;BME280;24025;48.138;11.428;2023-05-22T00:11:01;95121.66;;;16.02;70.62
38225;BME280;24025;48.138;11.428;2023-05-22T00:13:33;95110.16;;;15.98;70.79
38225;BME280;24025;48.138;11.428;2023-05-22T00:16:05;95103.28;;;15.97;71.03
38225;BME280;24025;48.138;11.428;2023-05-22T00:18:37;95109.16;;;15.88;71.49
38225;BME280;24025;48.138;11.428;2023-05-22T00:21:12;95107.28;;;15.85;71.19
38225;BME280;24025;48.138;11.428;2023-05-22T00:23:44;95110.41;;;15.83;71.19
38225;BME280;24025;48.138;11.428;2023-05-22T00:26:16;95117.44;;;15.74;71.71
38225;BME280;24025;48.138;11.428;2023-05-22T00:28:47;95115.66;;;15.64;72.17
38225;BME280;24025;48.138;11.428;2023-05-22T00:31:19;95106.91;;;15.56;72.53
38225;BME280;24025;48.138;11.428;2023-05-22T00:33:51;95110.75;;;15.55;72.36
38225;BME280;24025;48.138;11.428;2023-05-22T00:36:22;95113.47;;;15.51;72.60
38225;BME280;24025;48.138;11.428;2023-05-22T00:38:54;95100.13;;;15.44;72.83
38225;BME280;24025;48.138;11.428;2023-05-22T00:41:26;95102.94;;;15.34;73.45
38225;BME280;24025;48.138;11.428;2023-05-22T00:43:59;95098.81;;;15.29;73.38
38225;BME280;24025;48.138;11.428;2023-05-22T00:46:31;95101.84;;;15.31;73.25
38225;BME280;24025;48.138;11.428;2023-05-22T00:49:03;95095.66;;;15.34;72.76
38225;BME280;24025;48.138;11.428;2023-05-22T00:51:35;95101.03;;;15.34;72.74
38225;BME280;24025;48.138;11.428;2023-05-22T00:54:07;95093.03;;;15.30;73.18
38225;BME280;24025;48.138;11.428;2023-05-22T00:56:40;95097.16;;;15.35;72.25
38225;BME280;24025;48.138;11.428;2023-05-22T00:59:12;95098.00;;;15.32;72.94
38225;BME280;24025;48.138;11.428;2023-05-22T01:01:44;95100.00;;;15.24;73.13
38225;BME280;24025;48.138;11.428;2023-05-22T01:04:16;95100.06;;;15.21;73.15
38225;BME280;24025;48.138;11.428;2023-05-22T01:06:48;95104.75;;;15.10;73.62
38225;BME280;24025;48.138;11.428;2023-05-22T01:09:20;95110.91;;;15.10;73.49
38225;BME280;24025;48.138;11.428;2023-05-22T01:20:07;95117.69;;;14.88;73.84
38225;BME280;24025;48.138;11.428;2023-05-22T01:22:50;95118.84;;;14.83;73.89
38225;BME280;24025;48.138;11.428;2023-05-22T01:31:08;95132.66;;;14.85;73.08
38225;BME280;24025;48.138;11.428;2023-05-22T01:33:44;95125.38;;;14.86;72.77
38225;BME280;24025;48.138;11.428;2023-05-22T01:36:19;95123.88;;;14.81;72.66
38225;BME280;24025;48.138;11.428;2023-05-22T01:38:53;95125.91;;;14.70;73.10
38225;BME280;24025;48.138;11.428;2023-05-22T01:41:26;95129.78;;;14.65;73.56
38225;BME280;24025;48.138;11.428;2023-05-22T01:44:00;95129.00;;;14.65;73.35
38225;BME280;24025;48.138;11.428;2023-05-22T01:46:34;95126.78;;;14.56;73.50
38225;BME280;24025;48.138;11.428;2023-05-22T01:49:06;95132.59;;;14.51;74.09
38225;BME280;24025;48.138;11.428;2023-05-22T01:51:54;95139.44;;;14.56;73.60
38225;BME280;24025;48.138;11.428;2023-05-22T01:57:11;95141.06;;;14.50;73.39
38225;BME280;24025;48.138;11.428;2023-05-22T01:59:48;95143.72;;;14.50;73.46
38225;BME280;24025;48.138;11.428;2023-05-22T02:02:22;95139.88;;;14.51;73.08
38225;BME280;24025;48.138;11.428;2023-05-22T02:04:58;95138.38;;;14.46;73.12
38225;BME280;24025;48.138;11.428;2023-05-22T02:07:31;95140.66;;;14.48;72.85
38225;BME280;24025;48.138;11.428;2023-05-22T02:10:06;95143.34;;;14.44;73.04
38225;BME280;24025;48.138;11.428;2023-05-22T02:12:39;95146.84;;;14.41;72.87
38225;BME280;24025;48.138;11.428;2023-05-22T02:15:12;95144.94;;;14.38;72.81
38225;BME280;24025;48.138;11.428;2023-05-22T02:17:43;95149.59;;;14.30;72.92
38225;BME280;24025;48.138;11.428;2023-05-22T02:20:15;95144.25;;;14.27;73.71
38225;BME280;24025;48.138;11.428;2023-05-22T02:22:47;95142.75;;;14.26;73.41
38225;BME280;24025;48.138;11.428;2023-05-22T02:25:19;95143.13;;;14.24;73.18
38225;BME280;24025;48.138;11.428;2023-05-22T02:27:50;95143.53;;;14.19;73.21
38225;BME280;24025;48.138;11.428;2023-05-22T02:30:22;95142.81;;;14.15;73.49
38225;BME280;24025;48.138;11.428;2023-05-22T02:32:54;95144.34;;;14.16;72.94
38225;BME280;24025;48.138;11.428;2023-05-22T02:35:28;95139.00;;;14.12;73.05
38225;BME280;24025;48.138;11.428;2023-05-22T02:37:59;95137.06;;;14.13;72.75
38225;BME280;24025;48.138;11.428;2023-05-22T02:40:31;95139.75;;;14.13;72.58
38225;BME280;24025;48.138;11.428;2023-05-22T02:43:02;95140.91;;;14.12;72.58
38225;BME280;24025;48.138;11.428;2023-05-22T02:45:34;95133.66;;;14.09;72.55
38225;BME280;24025;48.138;11.428;2023-05-22T02:48:06;95136.78;;;14.00;73.11
38225;BME280;24025;48.138;11.428;2023-05-22T02:50:38;95135.66;;;13.94;73.40
38225;BME280;24025;48.138;11.428;2023-05-22T02:53:10;95133.03;;;13.91;73.20
38225;BME280;24025;48.138;11.428;2023-05-22T02:55:41;95139.94;;;13.88;73.23
38225;BME280;24025;48.138;11.428;2023-05-22T02:58:13;95136.50;;;13.84;73.52
38225;BME280;24025;48.138;11.428;2023-05-22T03:00:45;95142.25;;;13.82;73.64
38225;BME280;24025;48.138;11.428;2023-05-22T03:03:17;95137.69;;;13.79;73.75
38225;BME280;24025;48.138;11.428;2023-05-22T03:05:49;95146.09;;;13.81;73.72
38225;BME280;24025;48.138;11.428;2023-05-22T03:08:24;95133.84;;;13.80;73.77
38225;BME280;24025;48.138;11.428;2023-05-22T03:10:59;95136.53;;;13.77;73.74
38225;BME280;24025;48.138;11.428;2023-05-22T03:13:31;95136.16;;;13.78;73.42
38225;BME280;24025;48.138;11.428;2023-05-22T03:16:02;95141.50;;;13.82;73.60
38225;BME280;24025;48.138;11.428;2023-05-22T03:18:34;95140.75;;;13.78;73.73
38225;BME280;24025;48.138;11.428;2023-05-22T03:21:06;95143.41;;;13.81;73.68
38225;BME280;24025;48.138;11.428;2023-05-22T03:23:38;95151.06;;;13.83;73.29
38225;BME280;24025;48.138;11.428;2023-05-22T03:26:09;95153.38;;;13.81;73.04
38225;BME280;24025;48.138;11.428;2023-05-22T03:28:41;95154.53;;;13.76;73.52
38225;BME280;24025;48.138;11.428;2023-05-22T03:31:13;95153.81;;;13.72;73.62
38225;BME280;24025;48.138;11.428;2023-05-22T03:33:45;95157.25;;;13.73;73.65
38225;BME280;24025;48.138;11.428;2023-05-22T03:36:18;95153.81;;;13.72;73.79
38225;BME280;24025;48.138;11.428;2023-05-22T03:38:51;95156.88;;;13.67;73.76
38225;BME280;24025;48.138;11.428;2023-05-22T03:41:23;95153.44;;;13.67;74.15
38225;BME280;24025;48.138;11.428;2023-05-22T03:43:55;95163.41;;;13.66;74.11
38225;BME280;24025;48.138;11.428;2023-05-22T03:46:27;95157.28;;;13.66;73.99
38225;BME280;24025;48.138;11.428;2023-05-22T03:48:59;95158.44;;;13.65;74.00
38225;BME280;24025;48.138;11.428;2023-05-22T03:51:30;95152.72;;;13.63;74.08
38225;BME280;24025;48.138;11.428;2023-05-22T03:54:02;95151.91;;;13.66;74.05
38225;BME280;24025;48.138;11.428;2023-05-22T03:56:34;95146.97;;;13.60;74.20
38225;BME280;24025;48.138;11.428;2023-05-22T03:59:06;95156.22;;;13.52;74.46
38225;BME280;24025;48.138;11.428;2023-05-22T04:01:37;95159.66;;;13.53;74.41
38225;BME280;24025;48.138;11.428;2023-05-22T04:04:09;95156.22;;;13.52;74.31
38225;BME280;24025;48.138;11.428;2023-05-22T04:06:42;95161.94;;;13.54;74.77
38225;BME280;24025;48.138;11.428;2023-05-22T04:09:14;95162.72;;;13.48;75.34
38225;BME280;24025;48.138;11.428;2023-05-22T04:11:46;95167.72;;;13.46;75.04
38225;BME280;24025;48.138;11.428;2023-05-22T04:14:18;95169.63;;;13.45;75.37
38225;BME280;24025;48.138;11.428;2023-05-22T04:16:50;95169.59;;;13.49;75.33
38225;BME280;24025;48.138;11.428;2023-05-22T04:19:22;95168.06;;;13.51;75.26
38225;BME280;24025;48.138;11.428;2023-05-22T04:21:53;95161.94;;;13.54;75.49
38225;BME280;24025;48.138;11.428;2023-05-22T04:24:25;95166.88;;;13.59;75.46
38225;BME280;24025;48.138;11.428;2023-05-22T04:26:58;95159.22;;;13.62;75.63
38225;BME280;24025;48.138;11.428;2023-05-22T04:29:30;95161.50;;;13.63;76.02
38225;BME280;24025;48.138;11.428;2023-05-22T04:32:02;95163.00;;;13.68;75.30
38225;BME280;24025;48.138;11.428;2023-05-22T04:34:33;95168.69;;;13.77;75.55
38225;BME280;24025;48.138;11.428;2023-05-22T04:37:07;95161.00;;;13.86;75.17
38225;BME280;24025;48.138;11.428;2023-05-22T04:39:40;95170.13;;;13.96;75.19
38225;BME280;24025;48.138;11.428;2023-05-22T04:42:12;95168.22;;;13.96;76.56
38225;BME280;24025;48.138;11.428;2023-05-22T04:44:44;95172.78;;;13.99;76.29
38225;BME280;24025;48.138;11.428;2023-05-22T04:47:16;95175.03;;;14.04;76.16
38225;BME280;24025;48.138;11.428;2023-05-22T04:49:48;95172.72;;;14.13;76.33
38225;BME280;24025;48.138;11.428;2023-05-22T04:52:21;95174.16;;;14.22;76.86
38225;BME280;24025;48.138;11.428;2023-05-22T04:54:53;95182.56;;;14.27;75.85
38225;BME280;24025;48.138;11.428;2023-05-22T04:57:25;95181.00;;;14.33;75.17
38225;BME280;24025;48.138;11.428;2023-05-22T04:59:57;95180.16;;;14.40;75.17
38225;BME280;24025;48.138;11.428;2023-05-22T05:02:29;95181.66;;;14.48;74.91
38225;BME280;24025;48.138;11.428;2023-05-22T05:05:00;95176.59;;;14.57;75.62
38225;BME280;24025;48.138;11.428;2023-05-22T05:07:35;95188.78;;;14.69;75.04
38225;BME280;24025;48.138;11.428;2023-05-22T05:10:08;95182.22;;;14.77;74.80
38225;BME280;24025;48.138;11.428;2023-05-22T05:12:39;95186.72;;;14.87;74.38
38225;BME280;24025;48.138;11.428;2023-05-22T05:15:11;95181.25;;;14.98;74.11
38225;BME280;24025;48.138;11.428;2023-05-22T05:17:43;95181.50;;;15.11;73.75
38225;BME280;24025;48.138;11.428;2023-05-22T05:20:14;95177.19;;;15.20;73.58
38225;BME280;24025;48.138;11.428;2023-05-22T05:22:46;95180.59;;;15.24;74.14
38225;BME280;24025;48.138;11.428;2023-05-22T05:25:18;95177.78;;;15.35;73.60
38225;BME280;24025;48.138;11.428;2023-05-22T05:27:49;95180.03;;;15.40;73.50
38225;BME280;24025;48.138;11.428;2023-05-22T05:30:21;95181.06;;;15.50;73.60
38225;BME280;24025;48.138;11.428;2023-05-22T05:32:53;95181.84;;;15.50;73.36
38225;BME280;24025;48.138;11.428;2023-05-22T05:35:24;95188.03;;;15.44;73.58
38225;BME280;24025;48.138;11.428;2023-05-22T05:37:56;95181.69;;;15.65;72.77
38225;BME280;24025;48.138;11.428;2023-05-22T05:40:28;95185.09;;;15.69;72.37
38225;BME280;24025;48.138;11.428;2023-05-22T05:43:00;95184.59;;;15.77;71.76
38225;BME280;24025;48.138;11.428;2023-05-22T05:45:31;95186.03;;;15.85;72.65
38225;BME280;24025;48.138;11.428;2023-05-22T05:48:03;95189.81;;;15.92;71.60
38225;BME280;24025;48.138;11.428;2023-05-22T05:50:35;95186.44;;;15.84;71.50
38225;BME280;24025;48.138;11.428;2023-05-22T05:53:07;95185.44;;;16.01;71.92
38225;BME280;24025;48.138;11.428;2023-05-22T05:55:39;95181.53;;;16.06;71.64
38225;BME280;24025;48.138;11.428;2023-05-22T05:58:10;95189.75;;;16.22;70.75
38225;BME280;24025;48.138;11.428;2023-05-22T06:00:42;95186.31;;;16.22;69.89
38225;BME280;24025;48.138;11.428;2023-05-22T06:03:13;95193.44;;;16.32;70.56
38225;BME280;24025;48.138;11.428;2023-05-22T06:05:45;95182.94;;;16.41;71.04
38225;BME280;24025;48.138;11.428;2023-05-22T06:08:17;95190.22;;;16.44;70.18
38225;BME280;24025;48.138;11.428;2023-05-22T06:10:50;95194.25;;;16.56;70.12
38225;BME280;24025;48.138;11.428;2023-05-22T06:13:22;95200.63;;;16.65;70.21
38225;BME280;24025;48.138;11.428;2023-05-22T06:15:53;95198.63;;;16.73;68.84
38225;BME280;24025;48.138;11.428;2023-05-22T06:18:25;95206.53;;;16.84;69.14
38225;BME280;24025;48.138;11.428;2023-05-22T06:20:57;95194.38;;;16.95;69.07
38225;BME280;24025;48.138;11.428;2023-05-22T06:23:29;95202.75;;;17.01;68.08
38225;BME280;24025;48.138;11.428;2023-05-22T06:26:01;95197.94;;;17.12;67.54
38225;BME280;24025;48.138;11.428;2023-05-22T06:28:32;95199.75;;;17.19;65.35
38225;BME280;24025;48.138;11.428;2023-05-22T06:31:04;95198.38;;;17.31;65.10
38225;BME280;24025;48.138;11.428;2023-05-22T06:33:36;95208.06;;;17.28;63.30
38225;BME280;24025;48.138;11.428;2023-05-22T06:36:08;95198.25;;;17.38;63.04
38225;BME280;24025;48.138;11.428;2023-05-22T06:38:39;95204.69;;;17.44;63.27
38225;BME280;24025;48.138;11.428;2023-05-22T06:41:11;95205.25;;;17.55;63.06
38225;BME280;24025;48.138;11.428;2023-05-22T06:43:43;95198.94;;;17.62;62.97
38225;BME280;24025;48.138;11.428;2023-05-22T06:46:14;95203.59;;;17.61;62.69
38225;BME280;24025;48.138;11.428;2023-05-22T06:48:46;95199.84;;;17.75;62.48
38225;BME280;24025;48.138;11.428;2023-05-22T06:51:18;95203.25;;;17.79;62.48
38225;BME280;24025;48.138;11.428;2023-05-22T06:53:49;95205.19;;;17.78;62.77
38225;BME280;24025;48.138;11.428;2023-05-22T06:56:21;95209.50;;;17.76;62.86
38225;BME280;24025;48.138;11.428;2023-05-22T06:58:55;95211.22;;;17.86;63.20
38225;BME280;24025;48.138;11.428;2023-05-22T07:01:26;95214.53;;;17.94;63.33
38225;BME280;24025;48.138;11.428;2023-05-22T07:03:59;95217.91;;;17.98;62.55
38225;BME280;24025;48.138;11.428;2023-05-22T07:06:32;95208.56;;;18.02;63.04
38225;BME280;24025;48.138;11.428;2023-05-22T07:09:09;95207.72;;;18.05;63.06
38225;BME280;24025;48.138;11.428;2023-05-22T07:11:41;95212.03;;;18.03;62.82
38225;BME280;24025;48.138;11.428;2023-05-22T07:14:14;95212.59;;;18.10;63.02
38225;BME280;24025;48.138;11.428;2023-05-22T07:16:45;95213.63;;;18.17;63.31
38225;BME280;24025;48.138;11.428;2023-05-22T07:19:17;95207.34;;;18.23;63.95
38225;BME280;24025;48.138;11.428;2023-05-22T07:21:49;95207.09;;;18.34;63.10
38225;BME280;24025;48.138;11.428;2023-05-22T07:24:21;95209.63;;;18.41;63.63
38225;BME280;24025;48.138;11.428;2023-05-22T07:26:53;95210.66;;;18.47;63.61
38225;BME280;24025;48.138;11.428;2023-05-22T07:29:26;95213.44;;;18.60;63.69
38225;BME280;24025;48.138;11.428;2023-05-22T07:31:57;95217.31;;;18.59;62.93
38225;BME280;24025;48.138;11.428;2023-05-22T07:34:29;95213.66;;;18.69;63.12
38225;BME280;24025;48.138;11.428;2023-05-22T07:37:09;95213.91;;;18.75;63.32
38225;BME280;24025;48.138;11.428;2023-05-22T07:39:41;95217.59;;;18.81;63.02
38225;BME280;24025;48.138;11.428;2023-05-22T07:42:13;95213.06;;;18.78;62.46
38225;BME280;24025;48.138;11.428;2023-05-22T07:44:45;95211.78;;;18.82;63.05
38225;BME280;24025;48.138;11.428;2023-05-22T07:47:16;95211.88;;;18.79;62.84
38225;BME280;24025;48.138;11.428;2023-05-22T07:49:48;95209.31;;;18.88;63.14
38225;BME280;24025;48.138;11.428;2023-05-22T07:52:20;95208.81;;;18.93;63.58
38225;BME280;24025;48.138;11.428;2023-05-22T07:54:51;95210.66;;;18.96;62.85
38225;BME280;24025;48.138;11.428;2023-05-22T07:57:23;95209.75;;;19.03;63.30
38225;BME280;24025;48.138;11.428;2023-05-22T07:59:55;95209.38;;;19.17;63.04
38225;BME280;24025;48.138;11.428;2023-05-22T08:02:27;95207.09;;;19.15;62.80
38225;BME280;24025;48.138;11.428;2023-05-22T08:04:59;95203.69;;;19.28;63.03
38225;BME280;24025;48.138;11.428;2023-05-22T08:07:30;95209.75;;;19.32;62.84
38225;BME280;24025;48.138;11.428;2023-05-22T08:10:13;95212.09;;;19.46;63.25
38225;BME280;24025;48.138;11.428;2023-05-22T08:12:45;95203.03;;;19.52;62.33
38225;BME280;24025;48.138;11.428;2023-05-22T08:15:17;95206.13;;;19.67;62.98
38225;BME280;24025;48.138;11.428;2023-05-22T08:17:50;95206.69;;;19.75;62.13
38225;BME280;24025;48.138;11.428;2023-05-22T08:20:22;95209.63;;;19.80;61.59
38225;BME280;24025;48.138;11.428;2023-05-22T08:22:54;95209.75;;;19.90;62.25
38225;BME280;24025;48.138;11.428;2023-05-22T08:25:25;95204.47;;;19.99;60.48
38225;BME280;24025;48.138;11.428;2023-05-22T08:27:57;95213.16;;;20.06;60.97
38225;BME280;24025;48.138;11.428;2023-05-22T08:30:29;95207.28;;;19.95;61.23
38225;BME280;24025;48.138;11.428;2023-05-22T08:33:00;95201.88;;;20.08;61.24
38225;BME280;24025;48.138;11.428;2023-05-22T08:35:32;95207.41;;;20.17;61.02
38225;BME280;24025;48.138;11.428;2023-05-22T08:38:04;95201.88;;;20.21;60.64
38225;BME280;24025;48.138;11.428;2023-05-22T08:40:36;95198.22;;;20.27;59.04
38225;BME280;24025;48.138;11.428;2023-05-22T08:43:09;95200.41;;;20.32;59.73
38225;BME280;24025;48.138;11.428;2023-05-22T08:45:41;95194.63;;;20.30;60.18
38225;BME280;24025;48.138;11.428;2023-05-22T08:48:14;95193.22;;;20.38;59.52
38225;BME280;24025;48.138;11.428;2023-05-22T08:50:52;95195.53;;;20.53;60.34
38225;BME280;24025;48.138;11.428;2023-05-22T08:53:31;95192.06;;;20.52;59.06
38225;BME280;24025;48.138;11.428;2023-05-22T08:56:05;95193.91;;;20.55;58.41
38225;BME280;24025;48.138;11.428;2023-05-22T08:58:37;95195.41;;;20.56;58.42
38225;BME280;24025;48.138;11.428;2023-05-22T09:01:08;95193.91;;;20.68;58.81
38225;BME280;24025;48.138;11.428;2023-05-22T09:03:40;95191.50;;;20.70;57.95
38225;BME280;24025;48.138;11.428;2023-05-22T09:06:12;95192.22;;;20.83;59.19
38225;BME280;24025;48.138;11.428;2023-05-22T09:08:44;95194.06;;;20.86;57.90
38225;BME280;24025;48.138;11.428;2023-05-22T09:11:16;95190.44;;;21.02;57.25
38225;BME280;24025;48.138;11.428;2023-05-22T09:13:48;95190.97;;;21.10;57.50
38225;BME280;24025;48.138;11.428;2023-05-22T09:16:21;95188.16;;;21.13;57.00
38225;BME280;24025;48.138;11.428;2023-05-22T09:18:53;95189.66;;;21.14;56.49
38225;BME280;24025;48.138;11.428;2023-05-22T09:21:27;95192.41;;;21.36;56.53
38225;BME280;24025;48.138;11.428;2023-05-22T09:24:01;95198.06;;;21.42;57.22
38225;BME280;24025;48.138;11.428;2023-05-22T09:26:33;95191.34;;;21.34;57.86
38225;BME280;24025;48.138;11.428;2023-05-22T09:29:05;95187.25;;;21.51;57.70
38225;BME280;24025;48.138;11.428;2023-05-22T09:31:41;95186.31;;;21.67;57.12
38225;BME280;24025;48.138;11.428;2023-05-22T09:34:13;95192.38;;;21.71;59.09
38225;BME280;24025;48.138;11.428;2023-05-22T09:36:46;95197.53;;;21.78;57.01
38225;BME280;24025;48.138;11.428;2023-05-22T09:39:19;95195.28;;;21.76;56.58
38225;BME280;24025;48.138;11.428;2023-05-22T09:41:51;95193.06;;;21.84;56.12
38225;BME280;24025;48.138;11.428;2023-05-22T09:44:23;95195.13;;;21.80;56.10
38225;BME280;24025;48.138;11.428;2023-05-22T09:46:57;95195.91;;;21.81;56.32
38225;BME280;24025;48.138;11.428;2023-05-22T09:49:29;95205.59;;;21.91;56.56
38225;BME280;24025;48.138;11.428;2023-05-22T09:52:03;95194.00;;;22.12;56.26
38225;BME280;24025;48.138;11.428;2023-05-22T09:54:49;95197.09;;;22.32;55.86
38225;BME280;24025;48.138;11.428;2023-05-22T09:57:26;95199.28;;;22.16;56.32
38225;BME280;24025;48.138;11.428;2023-05-22T09:59:58;95193.94;;;22.34;55.98
38225;BME280;24025;48.138;11.428;2023-05-22T10:02:31;95198.53;;;22.46;55.21
38225;BME280;24025;48.138;11.428;2023-05-22T10:05:05;95200.03;;;22.47;54.90
38225;BME280;24025;48.138;11.428;2023-05-22T10:07:46;95191.34;;;22.71;55.43
38225;BME280;24025;48.138;11.428;2023-05-22T10:10:24;95200.28;;;22.80;55.87
38225;BME280;24025;48.138;11.428;2023-05-22T10:12:57;95190.50;;;22.92;54.46
38225;BME280;24025;48.138;11.428;2023-05-22T10:15:31;95196.53;;;22.96;53.41
38225;BME280;24025;48.138;11.428;2023-05-22T10:18:03;95190.81;;;23.03;53.18
38225;BME280;24025;48.138;11.428;2023-05-22T10:20:35;95184.50;;;23.15;52.98
38225;BME280;24025;48.138;11.428;2023-05-22T10:23:08;95190.69;;;23.34;54.26
38225;BME280;24025;48.138;11.428;2023-05-22T10:25:39;95189.19;;;23.15;52.91
38225;BME280;24025;48.138;11.428;2023-05-22T10:28:15;95187.97;;;23.34;53.37
38225;BME280;24025;48.138;11.428;2023-05-22T10:30:55;95193.56;;;23.22;53.12
38225;BME280;24025;48.138;11.428;2023-05-22T10:33:34;95182.25;;;23.41;52.96
38225;BME280;24025;48.138;11.428;2023-05-22T10:39:33;95180.38;;;23.57;52.08
38225;BME280;24025;48.138;11.428;2023-05-22T10:42:13;95171.75;;;23.58;53.13
38225;BME280;24025;48.138;11.428;2023-05-22T10:44:46;95181.50;;;23.59;52.81
38225;BME280;24025;48.138;11.428;2023-05-22T10:47:18;95183.28;;;23.53;52.78
38225;BME280;24025;48.138;11.428;2023-05-22T10:50:02;95175.38;;;23.92;51.31
38225;BME280;24025;48.138;11.428;2023-05-22T10:52:35;95167.84;;;24.20;52.53
38225;BME280;24025;48.138;11.428;2023-05-22T10:55:07;95173.28;;;24.29;51.35
38225;BME280;24025;48.138;11.428;2023-05-22T10:57:40;95174.06;;;24.63;50.61
38225;BME280;24025;48.138;11.428;2023-05-22T11:00:14;95175.88;;;24.66;50.20
38225;BME280;24025;48.138;11.428;2023-05-22T11:02:46;95175.84;;;24.42;49.63
38225;BME280;24025;48.138;11.428;2023-05-22T11:07:49;95169.75;;;24.05;50.21
38225;BME280;24025;48.138;11.428;2023-05-22T11:13:25;95162.91;;;24.84;49.48
38225;BME280;24025;48.138;11.428;2023-05-22T11:16:03;95164.25;;;25.13;49.04
38225;BME280;24025;48.138;11.428;2023-05-22T11:18:35;95160.59;;;25.31;49.03
38225;BME280;24025;48.138;11.428;2023-05-22T11:21:08;95160.19;;;24.99;48.03
38225;BME280;24025;48.138;11.428;2023-05-22T11:23:40;95165.44;;;24.88;48.03
38225;BME280;24025;48.138;11.428;2023-05-22T11:26:19;95160.09;;;24.94;47.46
38225;BME280;24025;48.138;11.428;2023-05-22T11:28:52;95154.91;;;25.05;47.69
38225;BME280;24025;48.138;11.428;2023-05-22T11:31:24;95154.00;;;25.23;47.99
38225;BME280;24025;48.138;11.428;2023-05-22T11:33:57;95157.63;;;25.05;47.64
38225;BME280;24025;48.138;11.428;2023-05-22T11:36:29;95151.97;;;25.08;47.00
38225;BME280;24025;48.138;11.428;2023-05-22T11:39:02;95155.63;;;25.29;47.31
38225;BME280;24025;48.138;11.428;2023-05-22T11:41:33;95153.38;;;25.42;46.43
38225;BME280;24025;48.138;11.428;2023-05-22T11:44:06;95153.91;;;25.70;46.75
38225;BME280;24025;48.138;11.428;2023-05-22T11:46:38;95148.41;;;25.56;45.36
38225;BME280;24025;48.138;11.428;2023-05-22T11:49:10;95145.75;;;25.61;46.11
38225;BME280;24025;48.138;11.428;2023-05-22T11:51:47;95145.06;;;25.76;45.87
38225;BME280;24025;48.138;11.428;2023-05-22T11:54:19;95143.50;;;25.45;46.63
38225;BME280;24025;48.138;11.428;2023-05-22T11:56:50;95135.75;;;25.29;46.54
38225;BME280;24025;48.138;11.428;2023-05-22T11:59:23;95142.81;;;25.21;45.98
38225;BME280;24025;48.138;11.428;2023-05-22T12:01:54;95141.78;;;25.33;47.21
38225;BME280;24025;48.138;11.428;2023-05-22T12:04:26;95137.75;;;25.43;47.28
38225;BME280;24025;48.138;11.428;2023-05-22T12:06:58;95137.88;;;25.63;46.55
38225;BME280;24025;48.138;11.428;2023-05-22T12:09:29;95139.97;;;25.98;45.02
38225;BME280;24025;48.138;11.428;2023-05-22T12:12:01;95139.56;;;26.05;45.21
38225;BME280;24025;48.138;11.428;2023-05-22T12:14:33;95150.41;;;25.85;45.30
38225;BME280;24025;48.138;11.428;2023-05-22T12:17:04;95138.16;;;26.10;44.77
38225;BME280;24025;48.138;11.428;2023-05-22T12:19:38;95132.13;;;26.06;44.62
38225;BME280;24025;48.138;11.428;2023-05-22T12:22:10;95129.88;;;26.04;43.09
38225;BME280;24025;48.138;11.428;2023-05-22T12:24:43;95135.38;;;26.39;43.07
38225;BME280;24025;48.138;11.428;2023-05-22T12:27:17;95132.31;;;26.17;42.78
38225;BME280;24025;48.138;11.428;2023-05-22T12:29:49;95132.81;;;26.01;43.44
38225;BME280;24025;48.138;11.428;2023-05-22T12:32:23;95138.41;;;26.26;43.38
38225;BME280;24025;48.138;11.428;2023-05-22T12:34:57;95124.25;;;26.28;42.52
38225;BME280;24025;48.138;11.428;2023-05-22T12:37:29;95127.00;;;26.28;41.93
38225;BME280;24025;48.138;11.428;2023-05-22T12:40:03;95121.63;;;26.34;41.93
38225;BME280;24025;48.138;11.428;2023-05-22T12:42:34;95123.31;;;26.46;42.96
38225;BME280;24025;48.138;11.428;2023-05-22T12:45:06;95124.00;;;26.26;41.99
38225;BME280;24025;48.138;11.428;2023-05-22T12:47:38;95114.00;;;26.58;41.30
38225;BME280;24025;48.138;11.428;2023-05-22T12:50:10;95116.13;;;26.48;42.62
38225;BME280;24025;48.138;11.428;2023-05-22T12:52:42;95120.09;;;26.47;42.11
38225;BME280;24025;48.138;11.428;2023-05-22T12:55:13;95114.75;;;26.38;40.48
38225;BME280;24025;48.138;11.428;2023-05-22T12:57:45;95110.78;;;26.39;40.02
38225;BME280;24025;48.138;11.428;2023-05-22T13:00:16;95111.41;;;26.49;39.35
38225;BME280;24025;48.138;11.428;2023-05-22T13:02:48;95103.16;;;26.64;39.79
38225;BME280;24025;48.138;11.428;2023-05-22T13:05:20;95097.00;;;27.09;40.18
38225;BME280;24025;48.138;11.428;2023-05-22T13:07:52;95101.22;;;27.31;41.25
38225;BME280;24025;48.138;11.428;2023-05-22T13:10:23;95092.31;;;27.36;40.73
38225;BME280;24025;48.138;11.428;2023-05-22T13:12:55;95093.53;;;27.35;40.45
38225;BME280;24025;48.138;11.428;2023-05-22T13:15:27;95093.50;;;26.89;41.85
38225;BME280;24025;48.138;11.428;2023-05-22T13:18:02;95099.44;;;26.46;41.48
38225;BME280;24025;48.138;11.428;2023-05-22T13:20:34;95096.16;;;26.42;41.80
38225;BME280;24025;48.138;11.428;2023-05-22T13:23:08;95088.72;;;26.63;41.18
38225;BME280;24025;48.138;11.428;2023-05-22T13:25:40;95094.06;;;27.13;40.75
38225;BME280;24025;48.138;11.428;2023-05-22T13:28:12;95085.53;;;27.05;41.14
38225;BME280;24025;48.138;11.428;2023-05-22T13:30:43;95088.13;;;27.41;39.72
38225;BME280;24025;48.138;11.428;2023-05-22T13:33:15;95094.50;;;27.58;40.84
38225;BME280;24025;48.138;11.428;2023-05-22T13:35:46;95083.31;;;27.30;39.57
38225;BME280;24025;48.138;11.428;2023-05-22T13:38:18;95076.28;;;27.55;38.97
38225;BME280;24025;48.138;11.428;2023-05-22T13:40:50;95080.53;;;27.56;38.30
38225;BME280;24025;48.138;11.428;2023-05-22T13:43:22;95082.66;;;27.67;37.00